Hauptseite
METAR-TAF:

METAR-TAF

Flughäfen :

Siegen, Deutschland

Siegerlandflughafen

Breite: 50-42-28N, Länge: 008-04-59E, Höhe: 602 m

Beobachtung

Neuester Wetterbericht von vor 5 Stunden und 47 Minuten, um 18:50 UTC
Wind 3 kt aus unterschiedlichen Richtungen
Temperatur 4°C
Luftfeuchtigkeit 52%
Luftdruck 1013 hPa
Sichtweite 10 km oder mehr
keine Wolken unter 1500 m und keine Kumulonimbus oder Gewitterwolken

METAR: EDGS 271850Z VRB03KT CAVOK 04/M05 Q1013

Zeit: 02:37 (00:37 UTC)

Prognose

Neuester Wetterbericht von vor 7 Stunden und 37 Minuten, um 17:00 UTC
Gültige Prognose vom 27 um 18 UTC bis 28 um 03 UTC
Wind 6 kt aus West/Nordwest
Sichtweite 10 km oder mehr
Leicht bewölkt in der Höhe von 4500 ft
Übergehend zu
vom 27 um 18 UTC bis 27 um 21 UTC
Wind 3 kt aus unterschiedlichen Richtungen

TAF: EDGS 271700Z 2718/2803 29006KT 9999 FEW045 BECMG 2718/2721 VRB03KT

Wetterbeobachtungen und Prognosen von mehr als 4000 Flughäfen (METAR und TAF Bericht).

Die verfügbaren Stationen werden durch gelbe und rote Markierungen auf der Karte dargestellt.

Führen Sie die Maus auf sie, um den Namen der Station zu sehen.

Darauf klicken, um die Beobachtung von Wetterbeobachtungen und Prognosen zu sehen.

Um die Karte zu ändern : klicken Sie auf den grünen Tasten mit einem schwarzen Kreuz Zum Vergrößern, auf den grünen Button mit einem Gedankenstrich zu verkleinern, oder auf die grünen Pfeile für benachbarte Karten.


METAR-TAF: